Time;durP1;ratioP1;P1;durP2;ratioP2;P2;SDS_P1;SDS_P2;PMS_P1;PMS_P2;Temp;Humidity;BMP_temperature;BMP_pressure;BME280_temperature;BME280_humidity;BME280_pressure;Samples;Min_cycle;Max_cycle;Signal;HPM_P1;HPM_P2
2022/09/20 00:01:14;;;;;;;3.70;2.70;;;15.00;65.20;;;;;;5020923;28;20046;-81
2022/09/20 00:03:46;;;;;;;2.63;2.25;;;15.00;65.10;;;;;;5030645;28;20021;-81
2022/09/20 00:06:18;;;;;;;;;;;15.00;65.20;;;;;;5021833;28;20028;-81
2022/09/20 00:08:45;;;;;;;3.08;2.38;;;15.00;65.40;;;;;;5049146;28;19912;-80
2022/09/20 00:11:20;;;;;;;2.38;2.15;;;15.00;65.30;;;;;;5026911;28;20026;-81
2022/09/20 00:13:47;;;;;;;3.40;2.72;;;15.00;65.40;;;;;;5032153;28;20068;-80
2022/09/20 00:16:21;;;;;;;3.38;2.50;;;15.10;65.40;;;;;;5034251;28;20030;-81
2022/09/20 00:18:49;;;;;;;3.28;2.90;;;15.00;65.40;;;;;;5025642;28;20040;-81
2022/09/20 00:21:16;;;;;;;3.30;2.67;;;15.00;65.50;;;;;;5031229;28;20536;-80
2022/09/20 00:23:42;;;;;;;4.03;2.90;;;15.00;65.50;;;;;;5029139;28;20025;-80
2022/09/20 00:26:08;;;;;;;4.72;3.22;;;15.10;65.50;;;;;;5028350;28;20132;-81
2022/09/20 00:28:33;;;;;;;4.43;2.80;;;15.00;65.40;;;;;;5030480;28;20428;-80
2022/09/20 00:31:00;;;;;;;5.18;3.08;;;15.00;65.40;;;;;;5030254;28;20556;-81
2022/09/20 00:35:06;;;;;;;4.38;2.90;;;15.00;65.40;;;;;;5030420;28;20124;-81
2022/09/20 00:36:12;;;;;;;4.00;2.83;;;15.00;65.40;;;;;;5031054;28;20094;-80
2022/09/20 00:38:37;;;;;;;5.03;2.97;;;15.00;65.40;;;;;;5031277;28;20439;-80
2022/09/20 00:41:03;;;;;;;3.25;2.45;;;15.00;65.40;;;;;;5024176;28;20026;-81
2022/09/20 00:43:55;;;;;;;5.10;2.90;;;15.00;65.40;;;;;;5029157;28;20025;-80
2022/09/20 00:46:27;;;;;;;2.70;2.50;;;14.90;65.30;;;;;;5020466;28;20025;-80
2022/09/20 00:49:00;;;;;;;3.10;2.70;;;15.00;65.40;;;;;;5029731;28;20021;-81
2022/09/20 00:51:33;;;;;;;3.25;2.42;;;14.90;65.40;;;;;;5029600;28;20053;-80
2022/09/20 00:54:01;;;;;;;2.55;2.28;;;14.90;65.50;;;;;;5036626;28;20092;-80
2022/09/20 00:56:31;;;;;;;4.30;2.30;;;15.00;65.50;;;;;;5038273;28;20036;-80
2022/09/20 00:59:27;;;;;;;3.55;2.50;;;15.00;65.60;;;;;;5031985;28;20037;-81
2022/09/20 01:02:05;;;;;;;2.75;2.38;;;14.90;65.60;;;;;;5032120;28;20024;-80
2022/09/20 01:04:33;;;;;;;2.92;2.10;;;14.90;65.70;;;;;;5035175;28;20030;-80
2022/09/20 01:07:01;;;;;;;2.20;2.03;;;14.90;65.80;;;;;;5038265;28;20029;-80
2022/09/20 01:09:27;;;;;;;2.55;2.00;;;14.90;65.90;;;;;;5033646;28;20075;-81
2022/09/20 01:11:55;;;;;;;2.40;2.20;;;14.80;66.00;;;;;;5033336;28;20029;-80
2022/09/20 01:14:24;;;;;;;3.25;2.33;;;14.80;66.00;;;;;;5033005;28;20027;-81
2022/09/20 01:16:55;;;;;;;2.38;2.00;;;14.80;66.10;;;;;;5033879;28;20049;-80
2022/09/20 01:19:52;;;;;;;2.78;2.00;;;14.80;66.10;;;;;;5034866;28;20087;-81
2022/09/20 01:22:46;;;;;;;2.28;2.00;;;14.80;66.00;;;;;;5030453;28;20021;-81
2022/09/20 01:25:21;;;;;;;1.58;1.48;;;14.80;66.00;;;;;;5033033;28;20026;-80
2022/09/20 01:27:50;;;;;;;2.05;1.88;;;14.80;66.10;;;;;;5034684;28;20473;-80
2022/09/20 01:30:19;;;;;;;3.20;1.80;;;14.70;66.00;;;;;;5031466;28;20031;-81
2022/09/20 01:33:04;;;;;;;2.47;1.83;;;14.80;66.00;;;;;;5029967;28;20014;-81
2022/09/20 01:35:34;;;;;;;2.33;1.85;;;14.80;66.10;;;;;;5029667;28;20604;-81
2022/09/20 01:38:30;;;;;;;1.98;1.83;;;14.80;66.10;;;;;;5048177;28;20069;-80
2022/09/20 01:41:05;;;;;;;1.85;1.65;;;14.80;66.10;;;;;;5030097;28;20385;-81
2022/09/20 01:44:06;;;;;;;1.67;1.55;;;14.80;66.20;;;;;;5032236;28;20048;-81
2022/09/20 01:46:34;;;;;;;2.00;1.73;;;14.80;66.20;;;;;;5031884;28;20018;-81
2022/09/20 01:49:38;;;;;;;2.08;1.83;;;14.80;66.20;;;;;;5033685;28;20048;-80
2022/09/20 01:52:54;;;;;;;2.00;1.83;;;14.80;66.30;;;;;;5016977;28;20059;-81
2022/09/20 01:55:56;;;;;;;1.60;1.50;;;14.70;66.30;;;;;;4975807;28;20026;-81
2022/09/20 01:58:43;;;;;;;1.75;1.58;;;14.70;66.40;;;;;;5023944;28;20025;-80
2022/09/20 02:01:42;;;;;;;2.40;1.77;;;14.70;66.50;;;;;;5032686;28;20112;-81
2022/09/20 02:04:11;;;;;;;1.77;1.67;;;14.70;66.50;;;;;;5032743;28;20060;-81
2022/09/20 02:07:33;;;;;;;1.83;1.73;;;14.70;66.70;;;;;;5032267;28;20029;-80
2022/09/20 02:10:33;;;;;;;2.05;1.83;;;14.80;66.90;;;;;;4977931;28;20171;-80
2022/09/20 02:13:04;;;;;;;1.40;1.30;;;14.80;66.90;;;;;;4957639;28;20433;-80
2022/09/20 02:15:55;;;;;;;2.05;1.85;;;14.80;67.20;;;;;;5021887;28;20025;-80
2022/09/20 02:18:35;;;;;;;2.30;1.77;;;14.90;67.10;;;;;;5037944;28;20069;-80
2022/09/20 02:21:29;;;;;;;2.23;1.90;;;14.90;67.20;;;;;;5030695;28;20095;-81
2022/09/20 02:24:16;;;;;;;2.60;2.40;;;14.90;67.20;;;;;;5052049;28;20030;-80
2022/09/20 02:26:42;;;;;;;3.00;2.70;;;14.90;67.20;;;;;;5041537;28;20048;-80
2022/09/20 02:29:21;;;;;;;2.67;2.33;;;14.90;67.20;;;;;;5029208;28;20084;-81
2022/09/20 02:32:37;;;;;;;3.58;2.88;;;14.90;67.20;;;;;;5033707;28;20029;-80
2022/09/20 02:35:17;;;;;;;3.55;2.70;;;14.90;67.10;;;;;;5009927;28;20038;-81
2022/09/20 02:37:52;;;;;;;2.60;2.40;;;14.90;67.10;;;;;;5035455;28;20071;-80
2022/09/20 02:40:49;;;;;;;3.80;2.83;;;14.90;67.10;;;;;;5044235;28;20029;-81
2022/09/20 02:43:24;;;;;;;3.30;2.55;;;14.90;67.20;;;;;;5032086;28;20392;-81
2022/09/20 02:45:52;;;;;;;2.30;2.10;;;15.00;67.30;;;;;;5033275;28;20029;-81
2022/09/20 02:48:24;;;;;;;2.72;2.50;;;15.00;67.30;;;;;;5031713;28;20018;-81
2022/09/20 02:51:02;;;;;;;2.35;2.15;;;15.00;67.30;;;;;;5031799;28;20025;-81
2022/09/20 02:54:12;;;;;;;3.22;2.30;;;15.00;67.20;;;;;;5039509;28;20029;-81
2022/09/20 02:56:47;;;;;;;2.88;2.35;;;15.00;67.10;;;;;;5027250;28;20030;-80
2022/09/20 02:59:39;;;;;;;2.70;2.30;;;15.00;67.10;;;;;;5032613;28;20029;-81
2022/09/20 03:02:23;;;;;;;2.80;2.30;;;15.10;66.90;;;;;;5032055;28;20029;-81
2022/09/20 03:05:13;;;;;;;3.67;2.67;;;15.10;67.00;;;;;;5033489;28;20018;-81
2022/09/20 03:07:50;;;;;;;3.55;2.83;;;15.10;67.00;;;;;;5033075;28;20122;-80
2022/09/20 03:10:39;;;;;;;2.65;2.45;;;15.10;67.00;;;;;;5046655;28;20037;-81
2022/09/20 03:13:40;;;;;;;3.20;2.83;;;15.10;67.00;;;;;;5030446;28;20045;-81
2022/09/20 03:16:27;;;;;;;4.30;3.38;;;15.10;67.00;;;;;;5031772;28;20484;-80
2022/09/20 03:19:00;;;;;;;3.90;3.38;;;15.10;67.00;;;;;;5028054;28;20042;-80
2022/09/20 03:21:47;;;;;;;5.53;3.40;;;15.10;66.90;;;;;;5032635;28;20666;-81
2022/09/20 03:24:26;;;;;;;3.67;3.05;;;15.10;67.00;;;;;;5029991;28;20467;-80
2022/09/20 03:27:15;;;;;;;3.15;2.78;;;15.10;66.80;;;;;;5027171;28;20033;-81
2022/09/20 03:29:59;;;;;;;3.67;2.88;;;15.20;66.90;;;;;;5030177;28;20481;-80
2022/09/20 03:32:45;;;;;;;3.90;3.03;;;15.20;66.90;;;;;;5031479;28;20209;-81
2022/09/20 03:35:40;;;;;;;3.42;3.00;;;15.20;67.10;;;;;;5025397;28;20545;-80
2022/09/20 03:38:43;;;;;;;3.30;3.00;;;15.20;67.40;;;;;;5026313;28;20496;-81
2022/09/20 03:41:24;;;;;;;2.75;2.55;;;15.20;67.50;;;;;;5034080;28;20029;-80
2022/09/20 03:44:04;;;;;;;3.07;2.47;;;15.20;67.40;;;;;;5043320;28;20053;-81
2022/09/20 03:46:39;;;;;;;3.10;2.80;;;15.10;67.30;;;;;;5030546;28;20277;-81
2022/09/20 03:49:24;;;;;;;2.35;2.15;;;15.20;67.30;;;;;;5028884;28;20040;-81
2022/09/20 03:52:08;;;;;;;2.95;2.45;;;15.20;67.10;;;;;;5031287;28;20048;-80
2022/09/20 03:55:14;;;;;;;2.03;1.90;;;15.20;67.00;;;;;;5032273;28;20468;-80
2022/09/20 03:57:51;;;;;;;1.90;1.80;;;15.20;67.00;;;;;;5030406;28;20037;-80
2022/09/20 04:00:29;;;;;;;1.88;1.70;;;15.20;67.00;;;;;;5029776;28;20034;-81
2022/09/20 04:03:28;;;;;;;1.80;1.70;;;15.20;67.10;;;;;;5031429;28;20029;-80
2022/09/20 04:06:25;;;;;;;1.67;1.58;;;15.20;67.30;;;;;;5030354;28;20045;-80
2022/09/20 04:08:59;;;;;;;1.42;1.33;;;15.20;67.70;;;;;;5030988;28;20025;-81
2022/09/20 04:11:52;;;;;;;1.20;1.10;;;15.20;68.00;;;;;;5030717;28;20480;-81
2022/09/20 04:14:24;;;;;;;1.20;1.20;;;15.20;68.10;;;;;;5022817;28;20017;-81
2022/09/20 04:17:14;;;;;;;1.13;1.13;;;15.20;68.40;;;;;;5029054;28;20064;-81
2022/09/20 04:19:50;;;;;;;1.40;1.30;;;15.20;68.60;;;;;;5029540;28;20374;-80
2022/09/20 04:22:20;;;;;;;1.63;1.30;;;15.20;68.80;;;;;;5034065;28;20026;-81
2022/09/20 04:25:12;;;;;;;1.70;1.60;;;15.20;69.00;;;;;;5030539;28;20026;-80
2022/09/20 04:27:52;;;;;;;1.50;1.40;;;15.30;69.20;;;;;;5030961;28;20021;-80
2022/09/20 04:30:28;;;;;;;0.93;0.93;;;15.20;69.30;;;;;;5046425;28;20018;-81
2022/09/20 04:33:07;;;;;;;1.38;1.27;;;15.30;69.60;;;;;;5025365;28;20018;-81
2022/09/20 04:38:28;;;;;;;1.70;1.60;;;15.30;69.80;;;;;;5035023;28;20044;-81
2022/09/20 04:41:28;;;;;;;1.48;1.38;;;15.30;70.00;;;;;;5033164;28;20022;-81
2022/09/20 04:44:16;;;;;;;1.60;1.50;;;15.30;70.60;;;;;;5002086;28;20400;-81
2022/09/20 04:46:51;;;;;;;1.20;1.17;;;15.30;69.80;;;;;;5029210;28;20018;-81
2022/09/20 04:49:58;;;;;;;1.63;1.52;;;15.30;69.70;;;;;;5032540;28;20068;-81
2022/09/20 04:52:46;;;;;;;2.00;1.80;;;15.40;69.90;;;;;;5045580;28;20025;-80
2022/09/20 04:55:52;;;;;;;1.83;1.65;;;15.40;69.90;;;;;;5023674;28;20030;-80
2022/09/20 04:58:38;;;;;;;1.65;1.55;;;15.50;70.70;;;;;;5034090;28;20125;-80
2022/09/20 05:01:25;;;;;;;2.05;1.85;;;15.50;70.00;;;;;;5034285;28;20028;-80
2022/09/20 05:04:18;;;;;;;1.77;1.67;;;15.50;70.00;;;;;;5034504;28;20903;-80
2022/09/20 05:06:50;;;;;;;2.08;1.88;;;15.60;69.70;;;;;;5034223;28;20377;-80
2022/09/20 05:09:43;;;;;;;2.67;1.98;;;15.60;69.60;;;;;;5031101;28;20025;-80
2022/09/20 05:12:30;;;;;;;2.58;1.95;;;15.60;69.50;;;;;;5031412;28;20103;-80
2022/09/20 05:15:37;;;;;;;2.42;2.20;;;15.70;69.50;;;;;;5041261;28;20029;-80
2022/09/20 05:18:47;;;;;;;3.22;2.15;;;15.70;69.30;;;;;;5022590;28;20427;-80
2022/09/20 05:21:49;;;;;;;2.30;1.95;;;15.80;69.00;;;;;;5005481;28;20030;-81
2022/09/20 05:24:30;;;;;;;2.25;2.05;;;15.80;69.00;;;;;;5000817;28;20026;-80
2022/09/20 05:27:01;;;;;;;2.33;2.13;;;15.80;69.10;;;;;;5028398;28;20224;-80
2022/09/20 05:29:43;;;;;;;2.40;2.10;;;15.80;69.30;;;;;;5030687;28;20025;-80
2022/09/20 05:32:23;;;;;;;2.20;2.00;;;15.90;69.50;;;;;;5032580;28;20026;-81
2022/09/20 05:35:11;;;;;;;2.50;1.95;;;15.90;69.60;;;;;;5038742;28;20053;-81
2022/09/20 05:37:49;;;;;;;1.58;1.48;;;15.90;69.40;;;;;;5031434;28;20053;-80
2022/09/20 05:40:38;;;;;;;1.52;1.42;;;15.90;69.30;;;;;;5048143;28;20472;-81
2022/09/20 05:43:16;;;;;;;1.63;1.52;;;15.90;69.10;;;;;;5030863;28;20036;-81
2022/09/20 05:46:06;;;;;;;1.60;1.50;;;15.90;69.10;;;;;;5042925;28;20029;-88
2022/09/20 05:48:44;;;;;;;1.67;1.58;;;15.90;69.00;;;;;;5026911;28;20056;-81
2022/09/20 05:51:38;;;;;;;1.50;1.40;;;15.90;69.10;;;;;;5025617;28;20116;-80
2022/09/20 05:54:22;;;;;;;1.70;1.60;;;15.90;69.10;;;;;;5024531;28;20411;-81
2022/09/20 05:57:29;;;;;;;1.67;1.58;;;15.90;69.00;;;;;;5033446;28;20029;-86
2022/09/20 06:00:01;;;;;;;1.50;1.40;;;16.00;68.90;;;;;;5047287;28;20057;-86
2022/09/20 06:02:52;;;;;;;1.42;1.33;;;16.00;68.90;;;;;;5032944;28;20296;-86
2022/09/20 06:05:37;;;;;;;1.50;1.40;;;16.00;68.70;;;;;;5042050;28;20419;-84
2022/09/20 06:08:34;;;;;;;1.40;1.30;;;16.00;68.50;;;;;;5036523;28;20029;-85
2022/09/20 06:11:13;;;;;;;1.60;1.50;;;16.00;68.50;;;;;;5017356;28;20033;-84
2022/09/20 06:13:38;;;;;;;1.80;1.42;;;16.00;68.60;;;;;;5028403;28;20029;-84
2022/09/20 06:16:07;;;;;;;1.02;1.02;;;16.00;68.60;;;;;;5018430;28;20030;-83
2022/09/20 06:18:50;;;;;;;1.63;1.52;;;16.00;68.60;;;;;;5024196;28;20134;-83
2022/09/20 06:21:41;;;;;;;1.48;1.38;;;16.00;68.60;;;;;;5030169;28;20485;-83
2022/09/20 06:24:41;;;;;;;1.40;1.30;;;16.00;68.60;;;;;;5022102;28;20033;-80
2022/09/20 06:27:18;;;;;;;1.33;1.23;;;16.00;68.60;;;;;;5001963;28;20092;-81
2022/09/20 06:29:52;;;;;;;1.10;1.10;;;16.00;68.40;;;;;;5020855;28;20030;-81
2022/09/20 06:32:18;;;;;;;1.10;1.10;;;16.00;68.40;;;;;;5025301;28;20029;-80
2022/09/20 06:34:45;;;;;;;1.23;1.20;;;16.00;68.30;;;;;;5019932;28;20036;-80
2022/09/20 06:43:30;;;;;;;2.25;1.58;;;15.90;68.30;;;;;;5026626;28;20044;-80
2022/09/20 06:45:56;;;;;;;1.60;1.50;;;15.90;68.40;;;;;;5023495;28;20037;-80
2022/09/20 06:48:23;;;;;;;1.67;1.58;;;15.90;68.50;;;;;;5023470;28;20481;-81
2022/09/20 06:50:51;;;;;;;1.42;1.33;;;15.80;68.70;;;;;;5021625;28;20159;-81
2022/09/20 06:53:22;;;;;;;2.10;1.35;;;15.80;68.90;;;;;;5023236;28;20030;-81
2022/09/20 06:55:48;;;;;;;1.30;1.20;;;15.80;69.00;;;;;;5015902;28;20456;-81
2022/09/20 06:58:14;;;;;;;1.65;1.55;;;15.80;69.10;;;;;;5022262;28;20034;-83
2022/09/20 07:00:40;;;;;;;1.83;1.73;;;15.80;69.20;;;;;;5010272;28;20029;-85
2022/09/20 07:03:06;;;;;;;1.38;1.27;;;15.70;69.20;;;;;;5013824;28;20177;-83
2022/09/20 07:05:42;;;;;;;1.50;1.40;;;15.70;69.30;;;;;;5024076;28;20022;-88
2022/09/20 07:08:08;;;;;;;2.15;1.50;;;15.70;69.60;;;;;;5037134;28;20060;-86
2022/09/20 07:10:37;;;;;;;1.33;1.20;;;15.70;69.90;;;;;;5041001;28;20034;-88
2022/09/20 07:13:04;;;;;;;1.45;1.35;;;15.70;70.00;;;;;;5028265;23;20056;-64
2022/09/20 07:15:34;;;;;;;1.02;1.02;;;15.70;70.30;;;;;;5026335;28;20959;-63
2022/09/20 07:17:59;;;;;;;1.60;1.50;;;15.70;70.40;;;;;;5029309;28;20038;-64
2022/09/20 07:20:26;;;;;;;1.02;1.02;;;15.80;70.70;;;;;;5028712;28;21827;-64
2022/09/20 07:22:52;;;;;;;1.85;1.50;;;15.80;70.80;;;;;;5023560;28;20135;-64
2022/09/20 07:25:19;;;;;;;1.25;1.10;;;15.90;71.00;;;;;;5024083;28;20074;-64
2022/09/20 07:27:45;;;;;;;1.75;1.65;;;15.90;71.10;;;;;;5024225;28;20362;-64
2022/09/20 07:30:13;;;;;;;2.13;1.50;;;15.90;71.20;;;;;;5027585;28;20040;-63
2022/09/20 07:32:39;;;;;;;1.83;1.58;;;16.00;71.40;;;;;;5022508;28;20500;-64
2022/09/20 07:35:10;;;;;;;2.15;1.85;;;16.10;71.50;;;;;;5028431;28;20033;-64
2022/09/20 07:37:36;;;;;;;2.67;2.10;;;16.10;71.30;;;;;;5023510;28;20041;-64
2022/09/20 07:40:04;;;;;;;1.77;1.67;;;16.10;71.10;;;;;;5024476;28;20733;-65
2022/09/20 07:42:30;;;;;;;1.88;1.77;;;16.10;71.10;;;;;;5022923;28;20033;-64
2022/09/20 07:44:55;;;;;;;2.15;1.95;;;16.20;71.30;;;;;;5024390;28;20423;-64
2022/09/20 07:47:24;;;;;;;1.92;1.83;;;16.20;71.50;;;;;;5027221;28;20025;-65
2022/09/20 07:49:50;;;;;;;2.15;1.92;;;16.20;71.50;;;;;;5033254;28;20020;-64
2022/09/20 07:52:16;;;;;;;2.90;2.25;;;16.20;71.70;;;;;;5029993;28;20727;-64
2022/09/20 07:54:42;;;;;;;2.78;2.38;;;16.20;71.80;;;;;;5032691;28;20060;-65
2022/09/20 07:57:08;;;;;;;3.40;2.75;;;16.30;72.00;;;;;;5029597;28;20116;-65
2022/09/20 07:59:33;;;;;;;4.72;3.10;;;16.30;71.90;;;;;;5029581;28;20432;-64
2022/09/20 08:01:59;;;;;;;3.30;2.97;;;16.30;72.10;;;;;;5019627;28;20057;-65
2022/09/20 08:04:25;;;;;;;3.95;2.88;;;16.40;72.30;;;;;;5027991;28;20515;-64
2022/09/20 08:06:51;;;;;;;3.83;2.80;;;16.40;72.30;;;;;;5036819;28;20035;-64
2022/09/20 08:09:18;;;;;;;3.63;3.20;;;16.30;72.50;;;;;;5032984;28;20147;-64
2022/09/20 08:11:45;;;;;;;4.65;3.20;;;16.40;72.70;;;;;;5031058;28;20220;-65
2022/09/20 08:14:15;;;;;;;5.25;3.33;;;16.40;72.60;;;;;;5037937;28;20101;-65
2022/09/20 08:16:43;;;;;;;6.03;3.60;;;16.40;72.60;;;;;;5030991;28;20082;-65
2022/09/20 08:19:17;;;;;;;4.95;3.47;;;16.40;72.50;;;;;;5042950;28;20041;-65
2022/09/20 08:21:43;;;;;;;5.78;3.58;;;16.40;72.40;;;;;;5025231;28;20021;-64
2022/09/20 08:24:10;;;;;;;4.75;3.33;;;16.40;72.40;;;;;;5022258;28;20484;-64
2022/09/20 08:26:35;;;;;;;5.25;3.70;;;16.40;72.20;;;;;;5014335;28;20107;-65
2022/09/20 08:29:02;;;;;;;9.65;5.95;;;16.40;72.20;;;;;;5024548;28;20648;-65
2022/09/20 08:31:33;;;;;;;8.55;5.32;;;16.40;72.10;;;;;;5022041;28;20037;-65
2022/09/20 08:34:02;;;;;;;10.32;6.07;;;16.40;72.10;;;;;;5032253;28;20515;-64
2022/09/20 08:36:29;;;;;;;8.48;6.25;;;16.40;72.10;;;;;;5028208;28;20030;-65
2022/09/20 08:38:56;;;;;;;11.27;6.55;;;16.30;72.10;;;;;;5024650;28;20761;-65
2022/09/20 08:41:25;;;;;;;9.75;5.85;;;16.40;72.40;;;;;;5027574;28;20143;-64
2022/09/20 08:44:05;;;;;;;11.38;6.43;;;16.30;72.60;;;;;;5026266;28;20033;-65
2022/09/20 08:46:37;;;;;;;11.90;7.38;;;16.30;72.50;;;;;;5026890;28;20508;-65
2022/09/20 08:49:06;;;;;;;12.90;7.88;;;16.40;72.50;;;;;;5028822;28;20033;-65
2022/09/20 08:51:36;;;;;;;13.00;8.15;;;16.30;72.50;;;;;;5036269;28;20029;-66
2022/09/20 08:54:03;;;;;;;14.00;8.43;;;16.30;72.50;;;;;;5027571;28;20059;-65
2022/09/20 08:56:35;;;;;;;17.70;8.73;;;16.30;72.60;;;;;;5031645;28;20032;-65
2022/09/20 08:59:01;;;;;;;16.80;9.65;;;16.30;72.80;;;;;;5022989;28;20454;-65
2022/09/20 09:01:30;;;;;;;18.65;10.25;;;16.30;72.70;;;;;;5021976;28;20534;-64
2022/09/20 09:04:11;;;;;;;17.02;10.27;;;16.30;72.90;;;;;;5023518;28;20118;-65
2022/09/20 09:06:39;;;;;;;;;;;16.30;72.80;;;;;;5022294;28;20025;-65
2022/09/20 09:09:06;;;;;;;16.10;9.50;;;16.30;73.00;;;;;;5031403;28;19932;-66
2022/09/20 09:11:35;;;;;;;19.23;11.63;;;16.40;73.00;;;;;;5021870;28;20024;-66
2022/09/20 09:14:56;;;;;;;16.00;9.13;;;16.30;72.90;;;;;;5024391;28;20045;-65
2022/09/20 09:17:26;;;;;;;6.35;3.88;;;16.30;73.00;;;;;;5023040;28;20400;-65
2022/09/20 09:19:53;;;;;;;3.95;2.90;;;16.20;72.70;;;;;;5026911;28;20067;-66
2022/09/20 09:22:41;;;;;;;3.08;2.47;;;16.20;72.50;;;;;;5032673;28;20037;-65
2022/09/20 09:25:16;;;;;;;2.85;1.90;;;16.10;72.60;;;;;;5041664;28;20048;-65
2022/09/20 09:28:02;;;;;;;3.25;2.60;;;16.00;72.70;;;;;;5032118;28;20082;-65
2022/09/20 09:30:34;;;;;;;2.83;2.38;;;16.00;73.20;;;;;;5030475;28;20131;-65
2022/09/20 09:33:32;;;;;;;4.20;2.58;;;15.90;73.60;;;;;;5035918;28;20159;-64
2022/09/20 09:36:13;;;;;;;3.38;3.00;;;16.00;74.00;;;;;;5034648;28;20708;-65
2022/09/20 09:38:45;;;;;;;2.40;2.15;;;16.00;74.20;;;;;;5040543;28;20028;-65
2022/09/20 09:41:28;;;;;;;1.80;1.70;;;16.00;74.30;;;;;;5042199;28;20055;-65
2022/09/20 09:44:08;;;;;;;2.30;2.00;;;16.10;74.00;;;;;;5033067;28;20062;-65
2022/09/20 09:46:36;;;;;;;2.17;1.95;;;16.10;74.00;;;;;;5030527;28;20465;-65
2022/09/20 09:49:17;;;;;;;2.88;1.80;;;16.10;73.60;;;;;;5027646;28;20071;-64
2022/09/20 09:52:32;;;;;;;2.30;1.83;;;16.10;73.50;;;;;;5033985;28;20659;-65
2022/09/20 09:55:00;;;;;;;1.63;1.50;;;16.20;73.60;;;;;;5029934;28;20032;-65
2022/09/20 09:57:33;;;;;;;1.48;1.38;;;16.20;73.60;;;;;;5023457;28;20025;-66
2022/09/20 10:00:16;;;;;;;2.17;1.40;;;16.20;73.60;;;;;;5025371;28;20444;-65
2022/09/20 10:02:55;;;;;;;1.88;1.77;;;16.30;73.50;;;;;;5025572;28;20021;-65
2022/09/20 10:05:36;;;;;;;1.92;1.80;;;16.30;73.60;;;;;;5027693;28;20029;-65
2022/09/20 10:08:53;;;;;;;2.17;1.83;;;16.30;73.60;;;;;;5023765;28;20051;-64
2022/09/20 10:11:37;;;;;;;1.52;1.42;;;16.30;73.30;;;;;;5028648;28;20095;-64
2022/09/20 10:14:30;;;;;;;2.38;1.42;;;16.30;73.40;;;;;;5028500;28;20038;-64
2022/09/20 10:17:25;;;;;;;1.88;1.77;;;16.30;73.60;;;;;;5029369;28;20041;-64
2022/09/20 10:20:09;;;;;;;1.45;1.35;;;16.40;73.80;;;;;;5031823;28;20025;-63
2022/09/20 10:23:00;;;;;;;1.40;1.30;;;16.50;73.80;;;;;;5034716;28;20116;-66
2022/09/20 10:25:50;;;;;;;1.33;1.23;;;16.60;73.60;;;;;;5027296;28;20530;-65
2022/09/20 10:28:30;;;;;;;1.92;1.63;;;16.60;73.50;;;;;;5029886;28;20029;-65
2022/09/20 10:31:14;;;;;;;1.77;1.30;;;16.70;73.30;;;;;;5031065;28;20680;-64
2022/09/20 10:34:10;;;;;;;1.40;1.30;;;16.70;72.90;;;;;;5035702;28;20029;-64
2022/09/20 10:36:39;;;;;;;1.20;1.20;;;16.70;72.60;;;;;;5030434;28;20140;-64
2022/09/20 10:39:15;;;;;;;1.48;1.38;;;16.70;72.60;;;;;;5031997;28;20047;-65
2022/09/20 10:44:36;;;;;;;1.20;1.20;;;16.70;72.50;;;;;;5028505;28;20646;-64
2022/09/20 10:47:18;;;;;;;1.43;1.33;;;16.60;72.60;;;;;;5026198;28;20033;-64
2022/09/20 10:50:11;;;;;;;1.20;1.20;;;16.50;72.80;;;;;;5028628;28;20400;-65
2022/09/20 10:52:48;;;;;;;1.17;1.13;;;16.50;72.90;;;;;;5021464;28;20040;-65
2022/09/20 10:55:52;;;;;;;2.50;1.20;;;16.60;73.10;;;;;;5032983;28;20020;-65
2022/09/20 10:58:38;;;;;;;1.08;1.05;;;16.60;73.00;;;;;;5019609;28;20041;-65
2022/09/20 11:01:28;;;;;;;1.10;1.10;;;16.60;73.10;;;;;;5028998;28;20074;-65
2022/09/20 11:04:18;;;;;;;1.20;1.20;;;16.50;73.00;;;;;;5030249;28;20029;-64
2022/09/20 11:06:54;;;;;;;1.05;0.95;;;16.50;73.20;;;;;;5023411;28;20859;-65
2022/09/20 11:09:28;;;;;;;1.52;1.42;;;16.50;73.40;;;;;;5038848;28;20041;-65
2022/09/20 11:12:31;;;;;;;1.50;1.10;;;16.50;73.40;;;;;;5030939;28;20037;-65
2022/09/20 11:15:16;;;;;;;1.33;1.23;;;16.50;73.40;;;;;;5029647;28;20033;-65
2022/09/20 11:18:02;;;;;;;1.55;1.40;;;16.50;73.40;;;;;;5032349;28;20503;-65
2022/09/20 11:20:34;;;;;;;1.40;1.25;;;16.60;73.40;;;;;;5027954;28;20044;-65
2022/09/20 11:23:13;;;;;;;0.93;0.90;;;16.50;73.20;;;;;;5031992;28;20039;-65
2022/09/20 11:25:57;;;;;;;1.25;1.10;;;16.50;73.10;;;;;;5031180;28;20029;-65
2022/09/20 11:28:32;;;;;;;1.40;1.30;;;16.50;73.40;;;;;;5035739;28;20021;-65
2022/09/20 11:31:10;;;;;;;0.82;0.82;;;16.60;73.40;;;;;;5027107;28;20033;-65
2022/09/20 11:34:09;;;;;;;1.38;1.27;;;16.60;73.40;;;;;;5028168;28;20140;-65
2022/09/20 11:36:57;;;;;;;1.15;0.95;;;16.70;73.30;;;;;;4999481;28;20102;-64
2022/09/20 11:39:43;;;;;;;1.02;1.02;;;16.70;73.30;;;;;;5031861;28;20037;-65
2022/09/20 11:42:19;;;;;;;1.67;1.40;;;16.70;73.20;;;;;;5027329;28;20445;-66
2022/09/20 11:44:45;;;;;;;1.85;1.50;;;16.70;73.20;;;;;;5033579;28;20102;-65
2022/09/20 11:47:26;;;;;;;1.20;1.20;;;16.80;73.10;;;;;;5032990;28;20049;-65
2022/09/20 11:50:28;;;;;;;1.48;1.30;;;16.80;72.90;;;;;;5034734;28;20095;-65
2022/09/20 11:53:12;;;;;;;1.63;1.30;;;16.80;72.60;;;;;;5034681;28;20468;-65
2022/09/20 11:55:47;;;;;;;1.20;1.10;;;16.80;72.60;;;;;;5032349;28;20043;-66
2022/09/20 11:58:15;;;;;;;1.27;1.17;;;16.80;72.50;;;;;;5027502;28;20452;-64
2022/09/20 12:00:44;;;;;;;1.55;1.17;;;16.80;72.50;;;;;;5035825;28;20120;-65
2022/09/20 12:03:36;;;;;;;1.40;1.30;;;16.80;72.20;;;;;;5026160;28;20028;-65
2022/09/20 12:06:28;;;;;;;1.30;1.23;;;16.80;72.00;;;;;;5030268;28;20021;-65
2022/09/20 12:08:57;;;;;;;1.67;1.42;;;16.80;71.90;;;;;;5025946;28;20429;-65
2022/09/20 12:11:35;;;;;;;1.50;1.40;;;16.80;72.00;;;;;;5030206;28;20037;-65
2022/09/20 12:14:18;;;;;;;1.95;1.75;;;16.80;72.00;;;;;;5029272;28;20400;-66
2022/09/20 12:16:45;;;;;;;1.38;1.27;;;16.70;72.00;;;;;;5034235;28;20024;-65
2022/09/20 12:19:12;;;;;;;1.05;1.02;;;16.70;71.80;;;;;;5026652;28;20034;-64
2022/09/20 12:21:57;;;;;;;1.40;1.30;;;16.60;72.10;;;;;;5029092;28;20032;-65
2022/09/20 12:24:24;;;;;;;1.70;1.50;;;16.60;72.40;;;;;;5040726;28;20056;-65
2022/09/20 12:26:55;;;;;;;1.38;1.20;;;16.60;72.70;;;;;;5023380;28;20037;-64
2022/09/20 12:29:23;;;;;;;1.42;1.23;;;16.60;73.10;;;;;;5030391;28;20063;-65
2022/09/20 12:31:52;;;;;;;1.55;1.45;;;16.60;73.40;;;;;;5030176;28;21105;-65
2022/09/20 12:34:17;;;;;;;1.52;1.40;;;16.60;73.70;;;;;;5028880;28;20033;-65
2022/09/20 12:36:55;;;;;;;1.55;1.45;;;16.60;73.90;;;;;;5029414;28;20033;-65
2022/09/20 12:39:24;;;;;;;1.80;1.70;;;16.60;74.00;;;;;;5024823;28;20037;-65
2022/09/20 12:42:21;;;;;;;1.70;1.60;;;16.60;74.20;;;;;;5035367;28;20070;-65
2022/09/20 12:44:58;;;;;;;2.15;1.95;;;16.70;74.40;;;;;;5045157;28;20045;-66
2022/09/20 12:47:31;;;;;;;3.13;2.42;;;16.70;74.50;;;;;;5044346;28;20065;-64
2022/09/20 12:53:02;;;;;;;2.50;2.30;;;16.70;74.90;;;;;;5038997;28;20650;-66
2022/09/20 12:55:44;;;;;;;2.50;2.20;;;16.70;75.00;;;;;;5035319;28;20166;-66
2022/09/20 12:58:15;;;;;;;2.67;2.28;;;16.60;75.10;;;;;;5038366;28;20033;-65
2022/09/20 13:00:44;;;;;;;3.35;2.50;;;16.60;75.30;;;;;;5034204;28;22288;-65
2022/09/20 13:03:22;;;;;;;4.72;2.85;;;16.60;75.50;;;;;;5037933;28;20056;-65
2022/09/20 13:06:12;;;;;;;3.80;2.67;;;16.60;75.80;;;;;;5041159;28;20024;-65
2022/09/20 13:09:07;;;;;;;3.72;2.90;;;16.60;76.00;;;;;;5038096;28;20033;-65
2022/09/20 13:11:39;;;;;;;3.10;2.70;;;16.60;76.20;;;;;;5034179;28;20029;-66
2022/09/20 13:14:05;;;;;;;4.18;2.97;;;16.60;76.30;;;;;;5026294;28;20043;-66
2022/09/20 13:16:36;;;;;;;2.92;2.55;;;16.60;76.50;;;;;;5032342;28;20029;-66
2022/09/20 13:19:10;;;;;;;5.65;3.55;;;16.60;76.80;;;;;;5029478;28;20488;-66
2022/09/20 13:21:39;;;;;;;4.47;3.45;;;16.60;76.80;;;;;;5037982;28;20056;-66
2022/09/20 13:24:07;;;;;;;4.50;3.15;;;16.60;77.00;;;;;;5037283;28;20029;-66
2022/09/20 13:26:39;;;;;;;3.08;2.40;;;16.60;77.00;;;;;;5036884;28;20385;-64
2022/09/20 13:29:19;;;;;;;3.30;2.65;;;16.60;76.90;;;;;;5038596;28;20053;-65
2022/09/20 13:31:47;;;;;;;3.08;2.40;;;16.50;77.00;;;;;;5036029;28;20024;-65
2022/09/20 13:34:24;;;;;;;3.28;2.33;;;16.50;76.80;;;;;;5031133;28;20035;-66
2022/09/20 13:36:54;;;;;;;2.50;2.30;;;16.50;77.00;;;;;;5034206;28;20039;-65
2022/09/20 13:39:36;;;;;;;2.97;2.35;;;16.50;77.00;;;;;;5043559;28;20048;-65
2022/09/20 13:42:07;;;;;;;2.65;2.35;;;16.50;77.20;;;;;;5036861;28;20022;-65
2022/09/20 13:44:33;;;;;;;4.40;2.60;;;16.40;77.20;;;;;;5031149;28;20025;-65
2022/09/20 13:47:00;;;;;;;2.95;2.50;;;16.40;77.50;;;;;;5032585;28;20120;-65
2022/09/20 13:49:30;;;;;;;2.92;2.63;;;16.40;77.80;;;;;;5029131;28;20403;-65
2022/09/20 13:51:56;;;;;;;2.58;2.20;;;16.40;77.80;;;;;;5033461;28;20029;-65
2022/09/20 13:54:30;;;;;;;2.95;2.28;;;16.40;77.90;;;;;;5032811;28;20418;-65
2022/09/20 13:57:02;;;;;;;2.13;1.92;;;16.40;77.90;;;;;;5034598;28;20056;-65
2022/09/20 13:59:35;;;;;;;2.30;2.10;;;16.40;77.90;;;;;;5040548;28;20079;-65
2022/09/20 14:02:01;;;;;;;2.00;1.90;;;16.40;77.90;;;;;;5039352;28;20103;-64